createdAt,value
2023-01-29T00:03:45.742Z,9.20
2023-01-29T00:08:51.885Z,9.15
2023-01-29T00:13:54.573Z,10.40
2023-01-29T00:18:57.307Z,10.73
2023-01-29T00:24:00.422Z,10.55
2023-01-29T00:29:03.155Z,11.50
2023-01-29T00:34:06.324Z,10.18
2023-01-29T00:39:11.205Z,10.25
2023-01-29T00:44:32.575Z,11.77
2023-01-29T00:49:35.489Z,12.20
2023-01-29T00:54:38.401Z,11.65
2023-01-29T00:59:41.418Z,9.85
2023-01-29T01:04:44.196Z,11.85
2023-01-29T01:10:05.320Z,12.43
2023-01-29T01:15:08.228Z,12.90
2023-01-29T01:20:11.707Z,13.27
2023-01-29T01:25:16.218Z,14.85
2023-01-29T01:30:19.423Z,13.50
2023-01-29T01:35:22.191Z,13.23
2023-01-29T01:40:25.429Z,13.25
2023-01-29T01:45:33.431Z,14.50
2023-01-29T01:50:40.548Z,15.93
2023-01-29T01:55:49.195Z,17.13
2023-01-29T02:00:52.133Z,15.98
2023-01-29T02:06:15.648Z,17.58
2023-01-29T02:11:18.539Z,18.08
2023-01-29T02:16:22.139Z,17.90
2023-01-29T02:21:33.926Z,18.85
2023-01-29T02:26:55.336Z,17.60
2023-01-29T02:32:14.684Z,16.45
2023-01-29T02:37:17.587Z,18.35
2023-01-29T02:42:27.581Z,19.33
2023-01-29T02:47:40.395Z,17.15
2023-01-29T02:53:03.398Z,19.92
2023-01-29T02:58:15.562Z,19.38
2023-01-29T03:03:20.871Z,22.13
2023-01-29T03:08:45.782Z,17.67
2023-01-29T03:14:08.171Z,21.70
2023-01-29T03:19:17.393Z,20.90
2023-01-29T03:24:50.989Z,18.95
2023-01-29T03:30:13.860Z,22.67
2023-01-29T03:35:37.983Z,18.55
2023-01-29T03:40:47.181Z,19.98
2023-01-29T03:46:00.314Z,22.35
2023-01-29T03:51:17.460Z,18.05
2023-01-29T03:56:27.950Z,22.67
2023-01-29T04:01:39.647Z,22.77
2023-01-29T04:06:45.487Z,19.83
2023-01-29T04:11:59.235Z,19.30
2023-01-29T04:17:06.037Z,20.02
2023-01-29T04:27:18.125Z,16.17
2023-01-29T04:32:27.943Z,16.98
2023-01-29T04:37:30.721Z,19.48
2023-01-29T04:42:41.971Z,18.52
2023-01-29T04:47:56.698Z,19.88
2023-01-29T04:52:59.416Z,20.73
2023-01-29T04:58:10.541Z,26.10
2023-01-29T05:03:14.235Z,25.60
2023-01-29T05:08:19.459Z,24.35
2023-01-29T05:13:22.600Z,25.63
2023-01-29T05:18:25.403Z,31.77
2023-01-29T05:23:28.123Z,25.83
2023-01-29T05:28:31.049Z,26.15
2023-01-29T05:33:33.523Z,28.85
2023-01-29T05:38:36.224Z,30.95
2023-01-29T05:43:38.723Z,30.13
2023-01-29T05:48:41.406Z,35.85
2023-01-29T05:53:44.213Z,27.15
2023-01-29T05:58:47.126Z,32.58
2023-01-29T06:03:49.854Z,34.15
2023-01-29T06:08:52.388Z,33.78
2023-01-29T06:13:55.124Z,33.50
2023-01-29T06:18:58.168Z,38.25
2023-01-29T06:24:00.889Z,33.15
2023-01-29T06:29:05.012Z,31.63
2023-01-29T06:34:08.238Z,37.50
2023-01-29T06:39:11.018Z,39.15
2023-01-29T06:44:13.704Z,35.22
2023-01-29T06:49:16.570Z,37.45
2023-01-29T06:54:19.274Z,40.38
2023-01-29T06:59:21.997Z,46.28
2023-01-29T07:04:24.990Z,40.88
2023-01-29T07:09:27.877Z,38.67
2023-01-29T07:14:30.620Z,39.40
2023-01-29T07:19:33.227Z,40.30
2023-01-29T07:24:35.943Z,43.30
2023-01-29T07:29:38.619Z,42.75
2023-01-29T07:34:41.449Z,42.15
2023-01-29T07:39:43.929Z,47.15
2023-01-29T07:44:46.571Z,39.78
2023-01-29T07:49:49.049Z,44.35
2023-01-29T07:54:51.838Z,42.33
2023-01-29T07:59:54.337Z,42.80
2023-01-29T08:04:56.795Z,36.63
2023-01-29T08:09:59.488Z,41.47
2023-01-29T08:15:02.249Z,40.35
2023-01-29T08:20:05.733Z,45.17
2023-01-29T08:25:08.886Z,41.58
2023-01-29T08:30:12.096Z,36.38
2023-01-29T08:35:15.278Z,39.60
2023-01-29T08:40:18.371Z,38.95
2023-01-29T08:45:21.154Z,33.95
2023-01-29T08:50:25.962Z,37.97
2023-01-29T08:55:33.008Z,33.97
2023-01-29T09:00:35.982Z,32.55
2023-01-29T09:05:39.165Z,38.15
2023-01-29T09:10:42.275Z,31.35
2023-01-29T09:15:45.022Z,34.05
2023-01-29T09:20:51.100Z,34.17
2023-01-29T09:25:53.913Z,33.70
2023-01-29T09:30:57.148Z,32.03
2023-01-29T09:36:00.103Z,32.60
2023-01-29T09:41:17.533Z,38.45
2023-01-29T09:46:23.016Z,35.28
2023-01-29T09:51:28.524Z,32.88
2023-01-29T09:56:31.613Z,31.70
2023-01-29T10:01:45.745Z,32.75
2023-01-29T10:07:04.877Z,33.55
2023-01-29T10:12:07.678Z,33.83
2023-01-29T10:17:22.545Z,32.30
2023-01-29T10:22:43.827Z,27.63
2023-01-29T10:27:52.535Z,27.38
2023-01-29T10:32:56.542Z,39.80
2023-01-29T10:38:02.717Z,26.63
2023-01-29T10:43:19.246Z,22.95
2023-01-29T10:48:30.806Z,25.35
2023-01-29T10:53:33.394Z,22.00
2023-01-29T10:58:36.421Z,26.08
2023-01-29T11:03:39.542Z,21.98
2023-01-29T11:08:45.263Z,22.00
2023-01-29T11:13:55.174Z,19.48
2023-01-29T11:18:59.855Z,21.40
2023-01-29T11:24:08.966Z,21.10
2023-01-29T11:29:27.688Z,19.15
2023-01-29T11:34:34.031Z,21.02
2023-01-29T11:39:43.423Z,21.23
2023-01-29T11:44:46.297Z,17.02
2023-01-29T11:49:50.504Z,19.98
2023-01-29T11:54:55.795Z,18.13
2023-01-29T12:00:01.571Z,17.67
2023-01-29T12:05:16.252Z,17.33
2023-01-29T12:10:48.483Z,15.75
2023-01-29T12:16:05.179Z,17.08
2023-01-29T12:21:13.604Z,15.73
2023-01-29T12:26:25.805Z,18.98
2023-01-29T12:31:34.511Z,18.63
2023-01-29T12:36:53.306Z,15.80
2023-01-29T12:41:56.362Z,15.35
2023-01-29T12:47:01.425Z,17.60
2023-01-29T12:52:07.513Z,15.57
2023-01-29T12:57:24.847Z,16.98
2023-01-29T13:02:50.304Z,16.25
2023-01-29T13:07:57.760Z,17.08
2023-01-29T13:13:23.792Z,16.25
2023-01-29T13:18:32.435Z,17.67
2023-01-29T13:23:37.252Z,16.77
2023-01-29T13:28:40.262Z,17.63
2023-01-29T13:33:43.675Z,15.95
2023-01-29T13:38:46.562Z,16.08
2023-01-29T13:43:50.255Z,18.33
2023-01-29T13:48:55.283Z,18.20
2023-01-29T13:54:01.208Z,17.60
2023-01-29T13:59:05.779Z,15.13
2023-01-29T14:04:27.379Z,19.83
2023-01-29T14:09:39.106Z,21.17
2023-01-29T14:15:00.073Z,17.60
2023-01-29T14:20:16.512Z,18.42
2023-01-29T14:25:23.656Z,20.00
2023-01-29T14:30:27.906Z,23.80
2023-01-29T14:35:33.943Z,23.33
2023-01-29T14:40:37.587Z,20.75
2023-01-29T14:45:44.958Z,24.13
2023-01-29T14:50:51.763Z,22.60
2023-01-29T14:56:03.910Z,23.85
2023-01-29T15:01:14.377Z,21.33
2023-01-29T15:06:19.268Z,24.42
2023-01-29T15:11:35.749Z,24.85
2023-01-29T15:16:41.288Z,24.38
2023-01-29T15:22:04.937Z,29.08
2023-01-29T15:27:11.771Z,26.60
2023-01-29T15:32:27.323Z,27.60
2023-01-29T15:37:31.842Z,32.33
2023-01-29T15:42:47.033Z,27.83
2023-01-29T15:47:50.231Z,25.08
2023-01-29T15:52:54.547Z,28.08
2023-01-29T15:57:57.913Z,26.10
2023-01-29T16:03:01.794Z,27.83
2023-01-29T16:08:05.299Z,28.88
2023-01-29T16:13:20.947Z,29.25
2023-01-29T16:18:25.180Z,28.55
2023-01-29T16:23:33.479Z,25.23
2023-01-29T16:28:43.356Z,25.85
2023-01-29T16:33:46.513Z,25.63
2023-01-29T16:38:50.847Z,23.70
2023-01-29T16:43:54.847Z,24.63
2023-01-29T16:48:57.459Z,23.98
2023-01-29T16:54:01.256Z,28.65
2023-01-29T16:59:05.018Z,25.33
2023-01-29T17:04:14.114Z,25.35
2023-01-29T17:09:20.761Z,26.90
2023-01-29T17:14:24.400Z,27.60
2023-01-29T17:19:27.183Z,23.67
2023-01-29T17:24:29.972Z,27.48
2023-01-29T17:29:35.281Z,22.13
2023-01-29T17:34:38.160Z,30.15
2023-01-29T17:39:41.067Z,25.13
2023-01-29T17:44:43.782Z,24.70
2023-01-29T17:49:48.002Z,26.58
2023-01-29T17:54:50.956Z,27.65
2023-01-29T17:59:53.939Z,27.40
2023-01-29T18:04:56.525Z,26.55
2023-01-29T18:09:59.063Z,24.42
2023-01-29T18:15:01.922Z,23.40
2023-01-29T18:20:12.666Z,25.25
2023-01-29T18:25:15.882Z,19.52
2023-01-29T18:30:18.917Z,21.85
2023-01-29T18:35:21.651Z,21.23
2023-01-29T18:40:24.359Z,19.27
2023-01-29T18:45:28.334Z,21.55
2023-01-29T18:50:31.034Z,17.00
2023-01-29T18:55:34.081Z,21.83
2023-01-29T19:00:36.718Z,20.17
2023-01-29T19:05:39.452Z,17.38
2023-01-29T19:10:42.134Z,20.38
2023-01-29T19:15:45.012Z,17.92
2023-01-29T19:20:47.946Z,18.73
2023-01-29T19:25:50.943Z,19.23
2023-01-29T19:30:56.744Z,21.10
2023-01-29T19:36:00.187Z,20.45
2023-01-29T19:41:03.117Z,16.52
2023-01-29T19:46:05.966Z,19.13
2023-01-29T19:51:09.926Z,17.75
2023-01-29T19:56:16.286Z,20.83
2023-01-29T20:01:20.357Z,17.95
2023-01-29T20:06:25.320Z,17.83
2023-01-29T20:11:27.914Z,18.58
2023-01-29T20:16:30.811Z,19.42
2023-01-29T20:21:33.989Z,17.25
2023-01-29T20:26:37.256Z,17.25
2023-01-29T20:31:40.214Z,16.48
2023-01-29T20:36:43.244Z,17.02
2023-01-29T20:41:46.063Z,15.00
2023-01-29T20:46:48.935Z,17.13
2023-01-29T20:51:51.765Z,17.13
2023-01-29T20:56:54.772Z,16.55
2023-01-29T21:01:59.303Z,14.90
2023-01-29T21:07:02.273Z,16.33
2023-01-29T21:12:07.968Z,16.65
2023-01-29T21:17:10.767Z,15.05
2023-01-29T21:22:13.520Z,15.73
2023-01-29T21:27:16.265Z,15.13
2023-01-29T21:32:19.252Z,13.57
2023-01-29T21:37:22.057Z,14.07
2023-01-29T21:42:43.384Z,14.30
2023-01-29T21:47:46.034Z,15.32
2023-01-29T21:52:49.091Z,16.42
2023-01-29T21:57:52.014Z,13.45
2023-01-29T22:02:55.054Z,13.98
2023-01-29T22:07:58.101Z,12.25
2023-01-29T22:13:02.412Z,16.30
2023-01-29T22:18:04.968Z,16.92
2023-01-29T22:23:08.579Z,16.17
2023-01-29T22:28:11.276Z,12.93
2023-01-29T22:33:13.897Z,16.13
2023-01-29T22:38:16.600Z,12.95
2023-01-29T22:48:43.172Z,16.33
2023-01-29T22:53:50.496Z,13.80
2023-01-29T22:58:54.726Z,15.55
2023-01-29T23:03:57.612Z,14.38
2023-01-29T23:09:00.263Z,13.00
2023-01-29T23:14:03.163Z,14.80
2023-01-29T23:19:10.428Z,12.68
2023-01-29T23:24:13.775Z,13.27
2023-01-29T23:29:16.857Z,13.43
2023-01-29T23:34:20.536Z,12.60
2023-01-29T23:39:23.687Z,15.13
2023-01-29T23:44:29.265Z,12.40
2023-01-29T23:49:31.973Z,13.25
2023-01-29T23:54:34.718Z,16.65
2023-01-29T23:59:37.318Z,13.77
